sensor_id;sensor_type;location;lat;lon;timestamp;P1;durP1;ratioP1;P2;durP2;ratioP2
1753;SDS011;58380;48.312;9.246;2022-08-21T06:28:07;5.22;;;2.17;;
1753;SDS011;58380;48.312;9.246;2022-08-21T06:31:17;5.45;;;2.10;;
1753;SDS011;58380;48.312;9.246;2022-08-21T06:34:10;3.60;;;1.65;;
1753;SDS011;58380;48.312;9.246;2022-08-21T06:39:37;3.63;;;1.67;;
1753;SDS011;58380;48.312;9.246;2022-08-21T06:42:05;2.42;;;1.58;;
1753;SDS011;58380;48.312;9.246;2022-08-21T06:44:49;2.47;;;1.92;;
1753;SDS011;58380;48.312;9.246;2022-08-21T06:47:24;4.53;;;1.95;;
1753;SDS011;58380;48.312;9.246;2022-08-21T06:49:59;7.20;;;2.10;;
1753;SDS011;58380;48.312;9.246;2022-08-21T06:52:28;4.70;;;2.00;;
1753;SDS011;58380;48.312;9.246;2022-08-21T06:55:02;4.65;;;2.08;;
1753;SDS011;58380;48.312;9.246;2022-08-21T07:18:16;6.68;;;3.50;;
1753;SDS011;58380;48.312;9.246;2022-08-21T07:23:40;4.70;;;2.42;;
1753;SDS011;58380;48.312;9.246;2022-08-21T07:26:27;6.47;;;2.20;;
1753;SDS011;58380;48.312;9.246;2022-08-21T07:29:14;5.30;;;2.58;;
1753;SDS011;58380;48.312;9.246;2022-08-21T07:33:06;6.82;;;2.50;;
1753;SDS011;58380;48.312;9.246;2022-08-21T07:36:14;10.50;;;3.70;;
1753;SDS011;58380;48.312;9.246;2022-08-21T07:39:49;6.25;;;3.40;;
1753;SDS011;58380;48.312;9.246;2022-08-21T07:55:59;6.20;;;2.25;;
1753;SDS011;58380;48.312;9.246;2022-08-21T08:06:36;5.05;;;2.28;;
1753;SDS011;58380;48.312;9.246;2022-08-21T08:09:19;5.25;;;1.92;;
1753;SDS011;58380;48.312;9.246;2022-08-21T08:15:02;7.32;;;2.17;;
1753;SDS011;58380;48.312;9.246;2022-08-21T08:17:36;8.25;;;2.42;;
1753;SDS011;58380;48.312;9.246;2022-08-21T08:20:14;5.32;;;2.30;;
1753;SDS011;58380;48.312;9.246;2022-08-21T08:22:52;4.03;;;1.77;;
1753;SDS011;58380;48.312;9.246;2022-08-21T08:25:19;4.32;;;1.98;;
1753;SDS011;58380;48.312;9.246;2022-08-21T08:27:47;5.32;;;2.08;;
1753;SDS011;58380;48.312;9.246;2022-08-21T08:30:14;8.23;;;2.45;;
1753;SDS011;58380;48.312;9.246;2022-08-21T08:32:43;5.55;;;2.10;;
1753;SDS011;58380;48.312;9.246;2022-08-21T08:35:10;7.28;;;1.90;;
1753;SDS011;58380;48.312;9.246;2022-08-21T08:37:39;8.05;;;2.00;;
1753;SDS011;58380;48.312;9.246;2022-08-21T08:40:07;6.38;;;2.05;;
1753;SDS011;58380;48.312;9.246;2022-08-21T08:42:48;10.55;;;2.47;;
1753;SDS011;58380;48.312;9.246;2022-08-21T08:45:16;6.75;;;2.40;;
1753;SDS011;58380;48.312;9.246;2022-08-21T08:47:52;6.40;;;2.07;;
1753;SDS011;58380;48.312;9.246;2022-08-21T08:50:28;9.27;;;2.42;;
1753;SDS011;58380;48.312;9.246;2022-08-21T08:53:16;4.35;;;2.00;;
1753;SDS011;58380;48.312;9.246;2022-08-21T08:55:51;5.20;;;2.20;;
1753;SDS011;58380;48.312;9.246;2022-08-21T09:00:55;4.45;;;2.22;;
1753;SDS011;58380;48.312;9.246;2022-08-21T09:03:25;4.05;;;2.20;;
1753;SDS011;58380;48.312;9.246;2022-08-21T09:09:06;3.95;;;1.90;;
1753;SDS011;58380;48.312;9.246;2022-08-21T09:15:30;3.85;;;1.88;;
1753;SDS011;58380;48.312;9.246;2022-08-21T09:24:26;5.18;;;2.20;;
1753;SDS011;58380;48.312;9.246;2022-08-21T09:27:15;6.03;;;2.35;;
1753;SDS011;58380;48.312;9.246;2022-08-21T09:29:47;4.65;;;1.60;;
1753;SDS011;58380;48.312;9.246;2022-08-21T09:32:23;5.47;;;2.03;;
1753;SDS011;58380;48.312;9.246;2022-08-21T09:37:47;5.45;;;2.20;;
1753;SDS011;58380;48.312;9.246;2022-08-21T09:40:30;5.95;;;1.90;;
1753;SDS011;58380;48.312;9.246;2022-08-21T09:43:01;4.45;;;1.95;;
1753;SDS011;58380;48.312;9.246;2022-08-21T09:45:36;5.43;;;1.65;;
1753;SDS011;58380;48.312;9.246;2022-08-21T09:48:10;3.70;;;1.88;;
1753;SDS011;58380;48.312;9.246;2022-08-21T09:50:45;4.63;;;2.10;;
1753;SDS011;58380;48.312;9.246;2022-08-21T09:55:53;6.00;;;1.92;;
1753;SDS011;58380;48.312;9.246;2022-08-21T09:58:43;4.72;;;1.83;;
1753;SDS011;58380;48.312;9.246;2022-08-21T10:01:19;5.93;;;2.00;;
1753;SDS011;58380;48.312;9.246;2022-08-21T10:03:49;5.47;;;1.80;;
1753;SDS011;58380;48.312;9.246;2022-08-21T10:06:34;6.13;;;2.10;;
1753;SDS011;58380;48.312;9.246;2022-08-21T10:11:35;3.65;;;1.75;;
1753;SDS011;58380;48.312;9.246;2022-08-21T10:19:38;4.07;;;1.95;;
1753;SDS011;58380;48.312;9.246;2022-08-21T10:22:32;8.18;;;1.80;;
1753;SDS011;58380;48.312;9.246;2022-08-21T10:25:18;5.00;;;2.10;;
1753;SDS011;58380;48.312;9.246;2022-08-21T10:28:03;3.83;;;1.52;;
1753;SDS011;58380;48.312;9.246;2022-08-21T10:33:56;5.45;;;1.67;;
1753;SDS011;58380;48.312;9.246;2022-08-21T10:37:05;5.28;;;1.98;;
1753;SDS011;58380;48.312;9.246;2022-08-21T10:39:52;6.95;;;1.85;;
1753;SDS011;58380;48.312;9.246;2022-08-21T10:46:17;3.00;;;1.63;;
1753;SDS011;58380;48.312;9.246;2022-08-21T10:55:14;4.30;;;1.52;;
1753;SDS011;58380;48.312;9.246;2022-08-21T11:00:26;3.95;;;1.50;;
1753;SDS011;58380;48.312;9.246;2022-08-21T11:06:31;6.18;;;2.00;;
1753;SDS011;58380;48.312;9.246;2022-08-21T11:09:20;3.65;;;1.77;;
1753;SDS011;58380;48.312;9.246;2022-08-21T11:11:56;3.90;;;1.75;;
1753;SDS011;58380;48.312;9.246;2022-08-21T11:18:01;11.10;;;2.13;;
1753;SDS011;58380;48.312;9.246;2022-08-21T11:24:16;5.30;;;1.70;;
1753;SDS011;58380;48.312;9.246;2022-08-21T11:29:36;4.03;;;1.73;;
1753;SDS011;58380;48.312;9.246;2022-08-21T11:41:03;4.88;;;2.00;;
1753;SDS011;58380;48.312;9.246;2022-08-21T11:55:58;5.72;;;2.03;;
1753;SDS011;58380;48.312;9.246;2022-08-21T11:58:36;4.53;;;1.88;;
1753;SDS011;58380;48.312;9.246;2022-08-21T12:01:13;5.60;;;1.63;;
1753;SDS011;58380;48.312;9.246;2022-08-21T12:04:29;3.15;;;1.67;;
1753;SDS011;58380;48.312;9.246;2022-08-21T12:07:27;5.13;;;1.73;;
1753;SDS011;58380;48.312;9.246;2022-08-21T12:10:05;3.72;;;1.70;;
1753;SDS011;58380;48.312;9.246;2022-08-21T12:12:39;5.68;;;1.30;;
1753;SDS011;58380;48.312;9.246;2022-08-21T12:15:16;5.15;;;2.10;;
1753;SDS011;58380;48.312;9.246;2022-08-21T12:20:33;3.00;;;1.67;;
1753;SDS011;58380;48.312;9.246;2022-08-21T12:29:04;5.18;;;1.63;;
1753;SDS011;58380;48.312;9.246;2022-08-21T12:31:36;6.28;;;1.95;;
1753;SDS011;58380;48.312;9.246;2022-08-21T12:34:48;5.20;;;1.90;;
1753;SDS011;58380;48.312;9.246;2022-08-21T12:37:21;4.80;;;1.67;;
1753;SDS011;58380;48.312;9.246;2022-08-21T12:40:14;4.85;;;1.95;;
1753;SDS011;58380;48.312;9.246;2022-08-21T12:43:02;4.30;;;1.50;;
1753;SDS011;58380;48.312;9.246;2022-08-21T12:45:30;4.05;;;2.08;;
1753;SDS011;58380;48.312;9.246;2022-08-21T12:48:20;6.55;;;1.88;;
1753;SDS011;58380;48.312;9.246;2022-08-21T12:50:51;5.45;;;1.88;;
1753;SDS011;58380;48.312;9.246;2022-08-21T12:56:11;2.80;;;1.45;;
1753;SDS011;58380;48.312;9.246;2022-08-21T12:58:46;3.30;;;1.60;;
1753;SDS011;58380;48.312;9.246;2022-08-21T13:01:27;4.72;;;2.08;;
1753;SDS011;58380;48.312;9.246;2022-08-21T13:03:58;3.05;;;1.73;;
1753;SDS011;58380;48.312;9.246;2022-08-21T13:06:29;4.00;;;1.58;;
1753;SDS011;58380;48.312;9.246;2022-08-21T13:09:05;6.50;;;2.00;;
1753;SDS011;58380;48.312;9.246;2022-08-21T13:11:35;4.18;;;1.90;;
1753;SDS011;58380;48.312;9.246;2022-08-21T13:14:02;5.57;;;1.73;;
1753;SDS011;58380;48.312;9.246;2022-08-21T13:16:29;5.03;;;1.73;;
1753;SDS011;58380;48.312;9.246;2022-08-21T13:18:58;4.57;;;1.65;;
1753;SDS011;58380;48.312;9.246;2022-08-21T13:21:42;3.35;;;1.63;;
1753;SDS011;58380;48.312;9.246;2022-08-21T13:24:16;2.78;;;1.35;;
1753;SDS011;58380;48.312;9.246;2022-08-21T13:26:57;4.43;;;1.42;;
1753;SDS011;58380;48.312;9.246;2022-08-21T13:29:26;4.00;;;1.50;;
1753;SDS011;58380;48.312;9.246;2022-08-21T13:32:02;3.75;;;1.70;;
1753;SDS011;58380;48.312;9.246;2022-08-21T13:34:33;4.68;;;1.95;;
1753;SDS011;58380;48.312;9.246;2022-08-21T13:37:06;3.05;;;1.42;;
1753;SDS011;58380;48.312;9.246;2022-08-21T13:39:36;4.82;;;1.60;;
1753;SDS011;58380;48.312;9.246;2022-08-21T13:42:04;3.92;;;1.60;;
1753;SDS011;58380;48.312;9.246;2022-08-21T13:44:43;5.10;;;1.90;;
1753;SDS011;58380;48.312;9.246;2022-08-21T13:47:12;7.55;;;1.70;;
1753;SDS011;58380;48.312;9.246;2022-08-21T13:49:45;2.78;;;1.58;;
1753;SDS011;58380;48.312;9.246;2022-08-21T13:52:24;3.47;;;1.42;;
1753;SDS011;58380;48.312;9.246;2022-08-21T13:54:56;3.35;;;1.50;;
1753;SDS011;58380;48.312;9.246;2022-08-21T13:57:33;4.57;;;1.52;;
1753;SDS011;58380;48.312;9.246;2022-08-21T14:00:10;4.72;;;1.70;;
1753;SDS011;58380;48.312;9.246;2022-08-21T14:02:46;2.97;;;1.50;;
1753;SDS011;58380;48.312;9.246;2022-08-21T14:05:22;6.75;;;1.40;;
1753;SDS011;58380;48.312;9.246;2022-08-21T14:08:07;3.33;;;1.45;;
1753;SDS011;58380;48.312;9.246;2022-08-21T14:10:45;3.78;;;1.52;;
1753;SDS011;58380;48.312;9.246;2022-08-21T14:14:02;3.45;;;1.40;;
1753;SDS011;58380;48.312;9.246;2022-08-21T14:16:13;4.20;;;1.60;;
1753;SDS011;58380;48.312;9.246;2022-08-21T14:21:33;4.43;;;1.90;;
1753;SDS011;58380;48.312;9.246;2022-08-21T14:26:51;3.55;;;1.65;;
1753;SDS011;58380;48.312;9.246;2022-08-21T14:29:22;4.43;;;1.50;;
1753;SDS011;58380;48.312;9.246;2022-08-21T14:31:53;2.75;;;1.60;;
1753;SDS011;58380;48.312;9.246;2022-08-21T14:34:24;6.97;;;1.65;;
1753;SDS011;58380;48.312;9.246;2022-08-21T14:36:54;4.95;;;1.85;;
1753;SDS011;58380;48.312;9.246;2022-08-21T14:39:21;5.53;;;2.38;;
1753;SDS011;58380;48.312;9.246;2022-08-21T14:41:46;4.72;;;1.70;;
1753;SDS011;58380;48.312;9.246;2022-08-21T14:44:14;6.00;;;1.95;;
1753;SDS011;58380;48.312;9.246;2022-08-21T14:46:42;3.55;;;1.88;;
1753;SDS011;58380;48.312;9.246;2022-08-21T14:49:08;4.50;;;1.88;;
1753;SDS011;58380;48.312;9.246;2022-08-21T14:51:33;3.55;;;1.73;;
1753;SDS011;58380;48.312;9.246;2022-08-21T14:53:59;5.15;;;1.73;;
1753;SDS011;58380;48.312;9.246;2022-08-21T14:56:24;4.22;;;1.77;;
1753;SDS011;58380;48.312;9.246;2022-08-21T14:58:51;4.28;;;1.67;;
1753;SDS011;58380;48.312;9.246;2022-08-21T15:01:18;3.78;;;1.80;;
1753;SDS011;58380;48.312;9.246;2022-08-21T15:03:46;4.47;;;1.70;;
1753;SDS011;58380;48.312;9.246;2022-08-21T15:06:13;6.25;;;2.22;;
1753;SDS011;58380;48.312;9.246;2022-08-21T15:08:41;3.17;;;1.75;;
1753;SDS011;58380;48.312;9.246;2022-08-21T15:11:07;3.72;;;1.40;;
1753;SDS011;58380;48.312;9.246;2022-08-21T15:13:38;5.82;;;1.80;;
1753;SDS011;58380;48.312;9.246;2022-08-21T15:16:04;5.45;;;1.80;;
1753;SDS011;58380;48.312;9.246;2022-08-21T15:18:30;3.88;;;1.92;;
1753;SDS011;58380;48.312;9.246;2022-08-21T15:20:56;3.10;;;1.90;;
1753;SDS011;58380;48.312;9.246;2022-08-21T15:23:22;4.75;;;1.63;;
1753;SDS011;58380;48.312;9.246;2022-08-21T15:25:48;3.28;;;1.80;;
1753;SDS011;58380;48.312;9.246;2022-08-21T15:28:15;3.63;;;1.70;;
1753;SDS011;58380;48.312;9.246;2022-08-21T15:30:43;3.90;;;1.80;;
1753;SDS011;58380;48.312;9.246;2022-08-21T15:33:10;4.53;;;1.75;;
1753;SDS011;58380;48.312;9.246;2022-08-21T15:35:36;3.28;;;1.80;;
1753;SDS011;58380;48.312;9.246;2022-08-21T15:38:02;4.32;;;1.73;;
1753;SDS011;58380;48.312;9.246;2022-08-21T15:40:28;4.35;;;1.83;;
1753;SDS011;58380;48.312;9.246;2022-08-21T15:42:59;4.57;;;1.70;;
1753;SDS011;58380;48.312;9.246;2022-08-21T15:45:27;4.22;;;1.48;;
1753;SDS011;58380;48.312;9.246;2022-08-21T15:47:53;5.00;;;1.83;;
1753;SDS011;58380;48.312;9.246;2022-08-21T15:50:20;2.40;;;1.65;;
1753;SDS011;58380;48.312;9.246;2022-08-21T15:52:47;3.00;;;1.77;;
1753;SDS011;58380;48.312;9.246;2022-08-21T15:55:12;2.58;;;1.85;;
1753;SDS011;58380;48.312;9.246;2022-08-21T15:57:42;4.82;;;2.00;;
1753;SDS011;58380;48.312;9.246;2022-08-21T16:00:14;5.10;;;2.00;;
1753;SDS011;58380;48.312;9.246;2022-08-21T16:02:47;3.00;;;2.00;;
1753;SDS011;58380;48.312;9.246;2022-08-21T16:05:18;4.05;;;2.20;;
1753;SDS011;58380;48.312;9.246;2022-08-21T16:07:44;4.05;;;2.05;;
1753;SDS011;58380;48.312;9.246;2022-08-21T16:10:13;4.05;;;1.85;;
1753;SDS011;58380;48.312;9.246;2022-08-21T16:12:42;4.55;;;1.77;;
1753;SDS011;58380;48.312;9.246;2022-08-21T16:15:13;3.28;;;1.67;;
1753;SDS011;58380;48.312;9.246;2022-08-21T16:17:41;4.15;;;1.80;;
1753;SDS011;58380;48.312;9.246;2022-08-21T16:20:13;5.00;;;2.13;;
1753;SDS011;58380;48.312;9.246;2022-08-21T16:22:43;3.78;;;1.90;;
1753;SDS011;58380;48.312;9.246;2022-08-21T16:25:09;3.78;;;2.15;;
1753;SDS011;58380;48.312;9.246;2022-08-21T16:27:35;3.08;;;1.77;;
1753;SDS011;58380;48.312;9.246;2022-08-21T16:30:02;7.53;;;2.22;;
1753;SDS011;58380;48.312;9.246;2022-08-21T16:32:30;3.08;;;1.60;;
1753;SDS011;58380;48.312;9.246;2022-08-21T16:34:56;4.13;;;1.70;;
1753;SDS011;58380;48.312;9.246;2022-08-21T16:37:21;4.85;;;2.28;;
1753;SDS011;58380;48.312;9.246;2022-08-21T16:39:47;7.03;;;2.10;;
1753;SDS011;58380;48.312;9.246;2022-08-21T16:42:14;7.95;;;2.38;;
1753;SDS011;58380;48.312;9.246;2022-08-21T16:44:45;6.85;;;2.15;;
1753;SDS011;58380;48.312;9.246;2022-08-21T16:47:11;6.65;;;2.10;;
1753;SDS011;58380;48.312;9.246;2022-08-21T16:49:37;5.03;;;1.95;;
1753;SDS011;58380;48.312;9.246;2022-08-21T16:52:03;4.00;;;1.95;;
1753;SDS011;58380;48.312;9.246;2022-08-21T16:54:29;10.07;;;1.88;;
1753;SDS011;58380;48.312;9.246;2022-08-21T16:56:56;6.55;;;3.28;;
1753;SDS011;58380;48.312;9.246;2022-08-21T16:59:22;6.32;;;2.00;;
1753;SDS011;58380;48.312;9.246;2022-08-21T17:04:13;5.50;;;2.20;;
1753;SDS011;58380;48.312;9.246;2022-08-21T17:09:04;4.40;;;2.33;;
1753;SDS011;58380;48.312;9.246;2022-08-21T17:14:00;6.15;;;2.20;;
1753;SDS011;58380;48.312;9.246;2022-08-21T17:16:28;3.58;;;2.13;;
1753;SDS011;58380;48.312;9.246;2022-08-21T17:21:20;6.00;;;2.42;;
1753;SDS011;58380;48.312;9.246;2022-08-21T17:26:12;4.30;;;2.30;;
1753;SDS011;58380;48.312;9.246;2022-08-21T17:28:40;7.97;;;2.53;;
1753;SDS011;58380;48.312;9.246;2022-08-21T17:31:08;5.38;;;2.20;;
1753;SDS011;58380;48.312;9.246;2022-08-21T17:33:41;4.95;;;2.20;;
1753;SDS011;58380;48.312;9.246;2022-08-21T17:36:21;5.03;;;2.30;;
1753;SDS011;58380;48.312;9.246;2022-08-21T17:38:50;6.88;;;2.40;;
1753;SDS011;58380;48.312;9.246;2022-08-21T17:43:44;4.97;;;2.45;;
1753;SDS011;58380;48.312;9.246;2022-08-21T17:46:11;6.20;;;2.08;;
1753;SDS011;58380;48.312;9.246;2022-08-21T17:48:44;4.97;;;2.38;;
1753;SDS011;58380;48.312;9.246;2022-08-21T17:53:36;5.82;;;2.22;;
1753;SDS011;58380;48.312;9.246;2022-08-21T17:56:02;3.65;;;2.03;;
1753;SDS011;58380;48.312;9.246;2022-08-21T17:58:29;3.85;;;2.25;;
1753;SDS011;58380;48.312;9.246;2022-08-21T18:00:56;5.57;;;2.20;;
1753;SDS011;58380;48.312;9.246;2022-08-21T18:03:22;5.40;;;2.20;;
1753;SDS011;58380;48.312;9.246;2022-08-21T18:08:17;5.10;;;2.17;;
1753;SDS011;58380;48.312;9.246;2022-08-21T18:13:14;3.38;;;2.05;;
1753;SDS011;58380;48.312;9.246;2022-08-21T18:15:51;7.18;;;2.55;;
1753;SDS011;58380;48.312;9.246;2022-08-21T18:18:19;7.03;;;2.33;;
1753;SDS011;58380;48.312;9.246;2022-08-21T18:20:47;4.63;;;2.22;;
1753;SDS011;58380;48.312;9.246;2022-08-21T18:23:14;5.95;;;2.20;;
1753;SDS011;58380;48.312;9.246;2022-08-21T18:28:13;4.72;;;2.30;;
1753;SDS011;58380;48.312;9.246;2022-08-21T18:30:41;5.43;;;2.22;;
1753;SDS011;58380;48.312;9.246;2022-08-21T18:33:08;4.38;;;2.40;;
1753;SDS011;58380;48.312;9.246;2022-08-21T18:35:37;4.00;;;2.22;;
1753;SDS011;58380;48.312;9.246;2022-08-21T18:38:03;4.07;;;2.25;;
1753;SDS011;58380;48.312;9.246;2022-08-21T18:40:30;4.63;;;2.55;;
1753;SDS011;58380;48.312;9.246;2022-08-21T18:43:00;3.80;;;2.30;;
1753;SDS011;58380;48.312;9.246;2022-08-21T18:45:30;4.30;;;2.42;;
1753;SDS011;58380;48.312;9.246;2022-08-21T18:47:56;4.95;;;2.50;;
1753;SDS011;58380;48.312;9.246;2022-08-21T18:50:23;9.88;;;2.50;;
1753;SDS011;58380;48.312;9.246;2022-08-21T18:52:51;7.35;;;2.70;;
1753;SDS011;58380;48.312;9.246;2022-08-21T18:57:44;5.32;;;2.60;;
1753;SDS011;58380;48.312;9.246;2022-08-21T19:00:15;5.22;;;2.75;;
1753;SDS011;58380;48.312;9.246;2022-08-21T19:02:44;4.95;;;2.58;;
1753;SDS011;58380;48.312;9.246;2022-08-21T19:05:12;5.38;;;2.40;;
1753;SDS011;58380;48.312;9.246;2022-08-21T19:07:39;3.25;;;2.22;;
1753;SDS011;58380;48.312;9.246;2022-08-21T19:10:07;6.03;;;2.67;;
1753;SDS011;58380;48.312;9.246;2022-08-21T19:12:35;6.45;;;2.40;;
1753;SDS011;58380;48.312;9.246;2022-08-21T19:15:04;5.80;;;2.63;;
1753;SDS011;58380;48.312;9.246;2022-08-21T19:17:33;5.18;;;2.60;;
1753;SDS011;58380;48.312;9.246;2022-08-21T19:22:42;4.63;;;2.42;;
1753;SDS011;58380;48.312;9.246;2022-08-21T19:25:07;4.10;;;2.45;;
1753;SDS011;58380;48.312;9.246;2022-08-21T19:30:00;6.68;;;2.60;;
1753;SDS011;58380;48.312;9.246;2022-08-21T19:32:28;6.50;;;2.88;;
1753;SDS011;58380;48.312;9.246;2022-08-21T19:34:55;6.05;;;3.05;;
1753;SDS011;58380;48.312;9.246;2022-08-21T19:37:21;6.05;;;2.83;;
1753;SDS011;58380;48.312;9.246;2022-08-21T19:39:47;4.85;;;2.88;;
1753;SDS011;58380;48.312;9.246;2022-08-21T19:42:13;6.68;;;3.10;;
1753;SDS011;58380;48.312;9.246;2022-08-21T19:44:40;6.55;;;2.88;;
1753;SDS011;58380;48.312;9.246;2022-08-21T19:47:09;6.25;;;3.28;;
1753;SDS011;58380;48.312;9.246;2022-08-21T19:49:44;6.30;;;2.63;;
1753;SDS011;58380;48.312;9.246;2022-08-21T19:52:15;5.25;;;2.60;;
1753;SDS011;58380;48.312;9.246;2022-08-21T19:54:40;5.28;;;3.00;;
1753;SDS011;58380;48.312;9.246;2022-08-21T19:57:07;4.88;;;2.67;;
1753;SDS011;58380;48.312;9.246;2022-08-21T19:59:35;7.05;;;2.95;;
1753;SDS011;58380;48.312;9.246;2022-08-21T20:02:03;6.07;;;2.70;;
1753;SDS011;58380;48.312;9.246;2022-08-21T20:04:29;5.80;;;2.83;;
1753;SDS011;58380;48.312;9.246;2022-08-21T20:06:56;3.90;;;2.28;;
1753;SDS011;58380;48.312;9.246;2022-08-21T20:09:21;4.28;;;2.50;;
1753;SDS011;58380;48.312;9.246;2022-08-21T20:11:52;6.90;;;3.17;;
1753;SDS011;58380;48.312;9.246;2022-08-21T20:14:23;5.10;;;3.10;;
1753;SDS011;58380;48.312;9.246;2022-08-21T20:16:53;8.85;;;2.90;;
1753;SDS011;58380;48.312;9.246;2022-08-21T20:19:32;4.80;;;2.55;;
1753;SDS011;58380;48.312;9.246;2022-08-21T20:21:58;5.40;;;2.55;;
1753;SDS011;58380;48.312;9.246;2022-08-21T20:24:24;5.97;;;2.60;;
1753;SDS011;58380;48.312;9.246;2022-08-21T20:26:50;4.57;;;2.63;;
1753;SDS011;58380;48.312;9.246;2022-08-21T20:29:17;5.07;;;2.80;;
1753;SDS011;58380;48.312;9.246;2022-08-21T20:31:44;5.90;;;2.50;;
1753;SDS011;58380;48.312;9.246;2022-08-21T20:34:11;6.10;;;2.70;;
1753;SDS011;58380;48.312;9.246;2022-08-21T20:36:37;6.75;;;3.15;;
1753;SDS011;58380;48.312;9.246;2022-08-21T20:39:02;6.80;;;2.83;;
1753;SDS011;58380;48.312;9.246;2022-08-21T20:41:29;5.85;;;2.78;;
1753;SDS011;58380;48.312;9.246;2022-08-21T20:43:57;6.38;;;2.88;;
1753;SDS011;58380;48.312;9.246;2022-08-21T20:46:25;6.95;;;2.85;;
1753;SDS011;58380;48.312;9.246;2022-08-21T20:48:54;9.07;;;2.97;;
1753;SDS011;58380;48.312;9.246;2022-08-21T20:51:21;7.07;;;3.10;;
1753;SDS011;58380;48.312;9.246;2022-08-21T20:56:52;6.03;;;2.97;;
1753;SDS011;58380;48.312;9.246;2022-08-21T21:05:17;5.97;;;2.95;;
1753;SDS011;58380;48.312;9.246;2022-08-21T21:10:28;5.15;;;3.13;;
1753;SDS011;58380;48.312;9.246;2022-08-21T21:13:16;4.53;;;3.05;;
1753;SDS011;58380;48.312;9.246;2022-08-21T21:15:52;7.07;;;3.28;;
1753;SDS011;58380;48.312;9.246;2022-08-21T21:18:57;8.25;;;2.95;;
1753;SDS011;58380;48.312;9.246;2022-08-21T21:21:28;4.50;;;3.00;;
1753;SDS011;58380;48.312;9.246;2022-08-21T21:24:08;7.78;;;3.65;;
1753;SDS011;58380;48.312;9.246;2022-08-21T21:29:45;5.13;;;3.20;;
1753;SDS011;58380;48.312;9.246;2022-08-21T21:32:19;7.13;;;2.88;;
1753;SDS011;58380;48.312;9.246;2022-08-21T21:34:45;5.68;;;3.33;;
1753;SDS011;58380;48.312;9.246;2022-08-21T21:37:18;4.75;;;3.10;;
